Tiempo atmosférico en la estación meteorológica de Candeleda, Ávila (350 m.)



Fecha
DESCASC
Temp. máxima en grados centígrados (hora)
DESCASC
Temp. mínima en grados centígrados (hora)
DESCASC
Temp. media en grados centígrados
DESCASC
Racha de viento máxima en m/sg (hora)
DESCASC
Velocidad máxima media en intervalos de 10 minutos(hora)
DESCASC
Precipitaciones diarias en mm
DESCASC
Precipitaciones de 00:00 a 06:00 en mm
DESCASC
Precipitaciones de 06:00 a 12:00 en mm
DESCASC
Precipitaciones de 12:00 a 18:00 en mm
DESCASC
Precipitaciones de 18:00 a 24:00 en mm
DESCASC
18-11-2019 15.9 (16:30) 2 (08:00) 8.9 7.22 (17:20) 3.89 (16:00) 0.2 0.2 0 0 0
17-11-2019 8.9 (14:40) 0.5 (03:40) 4.7 6.94 (23:50) 3.61 (23:40) 0.4 0 0 0.2 0.2
16-11-2019 15.1 (17:10) 0 (07:50) 7.6 7.5 (18:00) 5.28 (18:40) 0 0 0 0 0
15-11-2019 13.2 (13:20) 4.5 (08:20) 8.8 14.44 (01:40) 9.17 (01:40) 0 0 0 0 0
14-11-2019 13.6 (12:40) 7.2 (00:00) 10.4 16.39 (15:30) 9.44 (15:40) 1 0 0.4 0.6 0
13-11-2019 22.2 (15:00) 8.2 (00:00) 15.2 14.44 (08:50) 8.89 (08:50) 0 0 0 0 0
12-11-2019 16.8 (15:40) 5.7 (00:00) 11.2 9.72 (23:20) 5.83 (23:20) 0 0 0 0 0
11-11-2019 15.5 (15:40) 7 (23:59) 11.3 4.17 (16:50) 2.5 (18:10) 0 0 0 0 0
10-11-2019 13.3 (02:00) 7.2 (00:00) 10.3 18.33 (00:20) 7.78 (01:20) 0 0 0 0 0
09-11-2019 12.7 (13:20) 1.5 (00:00) 7.1 15.56 (23:00) 5.28 (22:50) 3.2 0 0 3 0.2
08-11-2019 16.3 (15:00) 4.4 (00:00) 10.3 15.83 (19:40) 10.83 (17:00) 0 0 0 0 0
07-11-2019 17 (14:20) 8 (00:00) 12.5 19.17 (12:40) 11.11 (13:00) 0.2 0.2 0 0 0
06-11-2019 18.6 (15:20) 4.5 (00:00) 11.6 3.61 (15:40) 2.22 (15:50) 0.2 0 0.2 0 0
05-11-2019 19 (15:00) 8.4 (00:00) 13.7 12.78 (23:40) 7.5 (14:30) 0 0 0 0 0
04-11-2019 15.6 (15:30) 10.7 (00:00) 13.2 11.94 (10:00) 7.22 (09:50) 3.4 0.2 0.2 3 0
03-11-2019 19.9 (15:20) 13.5 (00:00) 16.7 18.89 (13:40) 13.33 (13:30) 0 0 0 0 0
02-11-2019 20.4 (14:10) 14.6 (00:00) 17.5 12.78 (22:10) 8.06 (22:50) 4 2.6 1.2 0.2 0
01-11-2019 23.7 (16:50) 14.4 (00:00) 19.1 12.78 (14:40) 7.22 (14:10) 1 0 0 0 1
31-10-2019 21.6 (16:40) 14.7 (23:50) 18.2 3.06 (12:40) 1.67 (14:50) 0 0 0 0 0
30-10-2019 19.8 (12:10) 10.8 (00:00) 15.3 3.61 (16:00) 2.5 (16:20) 0.4 0 0 0.4 0
29-10-2019 24.2 (16:40) 11.1 (00:00) 17.7 3.89 (14:10) 2.22 (14:10) 0 0 0 0 0
28-10-2019 22.1 (14:10) 11.3 (00:00) 16.7 6.94 (13:40) 4.17 (13:40) 0 0 0 0 0
27-10-2019 25.8 (16:50) 9.8 (00:00) 17.8 3.33 (14:30) 1.39 (10:50) 0 0 0 0 0
26-10-2019 28.7 (17:50) 7.7 (00:00) 18.2 3.33 (19:50) 2.22 (19:50) 0 0 0 0 0
25-10-2019 25.7 (17:40) 7 (00:00) 16.4 4.17 (13:10) 2.22 (13:00) 0 0 0 0 0
24-10-2019 20.1 (17:00) 6.6 (00:00) 13.4 4.44 (17:30) 2.22 (18:20) 0 0 0 0 0
23-10-2019 14.3 (14:40) 9.1 (00:00) 11.7 3.89 (13:40) 2.22 (13:40) 0.4 0.4 0 0 0
22-10-2019 19.4 (15:50) 5 (00:00) 12.2 5 (16:40) 2.78 (17:00) 1.6 0 0 1.4 0.2

Gráficas

Temp. máximas Temp. mínimas Temp. medias Precipitaciones Rachas de viento máximas Velocidades máximas media en intervalos de 10 minutos

Datos horarios

Fecha y hora oficial Temperatura (ºC) Velocidad del viento (km/h) Dirección del viento Racha (km/h) Dirección de racha Precipitación (mm) Presión (hPa) Tendencia (hPa) Humedad (%)
2019-11-20 23:00:00 7.1 0 Calma 4 Noroeste 0 -- -- 98
2019-11-20 22:00:00 7.1 2 Noroeste 4 Noroeste 0 -- -- 98
2019-11-20 21:00:00 7.1 0 Calma 4 Sur 0 -- -- 98
2019-11-20 20:00:00 7.1 0 Calma 3 Nordeste 0.4 -- -- 97
2019-11-20 19:00:00 7.1 0 Calma 4 Nordeste 0.4 -- -- 96
2019-11-20 18:00:00 7.3 0 Calma 9 Este 2.4 -- -- 94
2019-11-20 17:00:00 7.8 4 Nordeste 11 Nordeste 0.4 -- -- 92
2019-11-20 16:00:00 7.9 7 Este 10 Este 0.6 -- -- 92
2019-11-20 15:00:00 8.4 2 Sudeste 4 Sudeste 0.2 -- -- 92
2019-11-20 14:00:00 8.2 2 Sudeste 8 Nordeste 1.2 -- -- 94
2019-11-20 13:00:00 7.9 4 Norte 7 Norte 1.8 -- -- 92
2019-11-20 12:00:00 7.8 2 Norte 4 Norte 0.6 -- -- 88
2019-11-20 11:00:00 7.4 2 Noroeste 5 Oeste 0.6 -- -- 91
2019-11-20 10:00:00 6.8 3 Sur 5 Sur 0 -- -- 92
2019-11-20 09:00:00 5.9 0 Calma 4 Sudoeste 0 -- -- 93
2019-11-20 08:00:00 5.6 3 Este 5 Nordeste 0 -- -- 92
2019-11-20 07:00:00 5.6 0 Calma 3 Sudeste 0 -- -- 92
2019-11-20 06:00:00 5.6 2 Este -- -- 0 -- -- 92
2019-11-20 05:00:00 5.3 2 Este 3 Este 0 -- -- 93
2019-11-20 04:00:00 5.2 0 Calma 3 Nordeste 0 -- -- 92
2019-11-20 03:00:00 5.2 3 Este 5 Este 0 -- -- 90
2019-11-20 02:00:00 5.9 0 Calma 4 Norte 0 -- -- 86
2019-11-20 01:00:00 5.5 0 Calma 4 Nordeste 0 -- -- 87
2019-11-20 00:00:00 6.3 3 Nordeste 4 Este 0 -- -- 88
2019-11-19 23:00:00 6.7 0 Calma 3 Nordeste 0 -- -- 87
2019-11-19 22:00:00 7.1 0 Calma 3 Nordeste 0 -- -- 84
2019-11-19 21:00:00 6.9 2 Nordeste 3 Nordeste 0 -- -- 85
2019-11-19 20:00:00 7.5 2 Este 4 Nordeste 0 -- -- 81
2019-11-19 19:00:00 8 3 Noroeste 4 Oeste 0 -- -- 75
2019-11-19 18:00:00 8.6 0 Calma 5 Sudoeste 0 -- -- 73
2019-11-19 17:00:00 10.3 4 Sudoeste 8 Sudoeste 0 -- -- 64
2019-11-19 16:00:00 11.4 5 Sudoeste 11 Sur 0 -- -- 58
2019-11-19 15:00:00 12.1 3 Sudoeste 6 Oeste 0 -- -- 56
2019-11-19 14:00:00 11.4 0 Calma 4 Oeste 0 -- -- 56
2019-11-19 13:00:00 9.7 0 Calma 6 Sudeste 0 -- -- 59
2019-11-19 12:00:00 7.7 0 Calma 6 Oeste 0 -- -- 73
2019-11-19 11:00:00 5.4 0 Calma 3 Este 0 -- -- 82
2019-11-19 10:00:00 2.9 0 Calma 5 Este 0 -- -- 92
2019-11-19 09:00:00 1.5 0 Calma 3 Nordeste 0 -- -- 94
2019-11-19 08:00:00 1.1 0 Calma 2 Noroeste 0 -- -- 93
2019-11-19 07:00:00 0.5 2 Este 4 Nordeste 0 -- -- 93
2019-11-19 06:00:00 0.9 0 Calma 4 Nordeste 0 -- -- 92
2019-11-19 05:00:00 0.6 0 Calma 4 Sudeste 0 -- -- 91
2019-11-19 04:00:00 0.9 0 Calma 5 Sudeste 0 -- -- 90
2019-11-19 03:00:00 1.5 2 Este 6 Este 0 -- -- 87
2019-11-19 02:00:00 2 0 Calma 5 Este 0 -- -- 86
2019-11-19 01:00:00 2.9 5 Este 9 Norte 0 -- -- 82
2019-11-19 00:00:00 4.4 5 Norte 8 Norte 0 -- -- 76
2019-11-18 23:00:00 4.4 3 Nordeste 9 Este 0 -- -- 77
2019-11-18 22:00:00 4.6 5 Nordeste 10 Este 0 -- -- 78
2019-11-18 21:00:00 6.4 0 Calma 6 Norte 0 -- -- 73
2019-11-18 20:00:00 7.4 4 Norte 12 Norte 0 -- -- 69
2019-11-18 19:00:00 8.8 8 Norte 14 Noroeste 0 -- -- 65
2019-11-18 18:00:00 11.3 3 Este 26 Oeste 0 -- -- 56
2019-11-18 17:00:00 15.6 9 Sudeste 17 Sur 0 -- -- 46
2019-11-18 16:00:00 15.2 14 Sudoeste 21 Sudoeste 0 -- -- 48
2019-11-18 15:00:00 15.2 10 Sur 17 Oeste 0 -- -- 49
2019-11-18 14:00:00 13.9 8 Sudoeste 21 Sudoeste 0 -- -- 55
2019-11-18 13:00:00 12.9 6 Sudoeste 14 Sudoeste 0 -- -- 59
2019-11-18 12:00:00 10.8 3 Sudeste 12 Sudeste 0 -- -- 77
2019-11-18 11:00:00 9.1 8 Sur 12 Sudoeste 0 -- -- 84
2019-11-18 10:00:00 8.3 0 Calma 9 Sudeste 0 -- -- 88
2019-11-18 09:00:00 3.9 4 Oeste 11 Este 0 -- -- 95
2019-11-18 08:00:00 2 0 Calma 6 Este 0 -- -- 95
2019-11-18 07:00:00 2.5 3 Noroeste 8 Oeste 0 -- -- 95
2019-11-18 06:00:00 3.1 3 Nordeste 20 Este 0 -- -- 96
2019-11-18 05:00:00 3.5 4 Norte 11 Nordeste 0 -- -- 96
2019-11-18 04:00:00 5.4 7 Nordeste 15 Este 0.2 -- -- 99
2019-11-18 03:00:00 4.8 5 Norte 14 Este 0 -- -- 96
2019-11-18 02:00:00 4.7 3 Nordeste 12 Este 0 -- -- 96
2019-11-18 01:00:00 7.4 6 Nordeste 17 Nordeste 0 -- -- 96
2019-11-18 00:00:00 8.1 4 Nordeste 25 Este 0 -- -- 97
2019-11-17 23:00:00 7.9 8 Nordeste 19 Nordeste 0 -- -- 98
2019-11-17 22:00:00 6.8 4 Este 10 Nordeste 0 -- -- 97
2019-11-17 21:00:00 7.7 5 Nordeste 14 Este 0 -- -- 97
2019-11-17 20:00:00 8.5 6 Nordeste 11 Nordeste 0 -- -- 97
2019-11-17 19:00:00 8.5 2 Nordeste 5 Nordeste 0.2 -- -- 96
2019-11-17 18:00:00 8.7 0 Calma 5 Sur 0.2 -- -- 94
2019-11-17 17:00:00 8.8 2 Sur 8 Norte 0 -- -- 91
2019-11-17 16:00:00 8.8 3 Norte 11 Oeste 0 -- -- 89
2019-11-17 15:00:00 8.8 9 Oeste 19 Sudoeste 0 -- -- 88
2019-11-17 14:00:00 8.4 8 Oeste 21 Sudoeste 0 -- -- 89
2019-11-17 13:00:00 7.2 5 Noroeste 10 Oeste 0 -- -- 88
2019-11-17 12:00:00 7.3 3 Sudoeste 5 Sur 0 -- -- 80
2019-11-17 11:00:00 6.6 0 Calma 5 Sudeste 0 -- -- 81
2019-11-17 10:00:00 5.9 0 Calma 3 Sudoeste 0 -- -- 86
2019-11-17 09:00:00 4.6 0 Calma 5 Norte 0 -- -- 88
2019-11-17 08:00:00 3 0 Calma 5 Noroeste 0 -- -- 89
2019-11-17 07:00:00 3.5 0 Calma 6 Nordeste 0 -- -- 87
2019-11-17 06:00:00 2 0 Calma 5 Este 0 -- -- 88
2019-11-17 05:00:00 3.2 2 Nordeste 8 Nordeste 0 -- -- 86
2019-11-17 04:00:00 1 2 Noroeste 8 Este 0 -- -- 87
2019-11-17 03:00:00 1.3 3 Nordeste 6 Nordeste 0 -- -- 81
2019-11-17 02:00:00 2.1 0 Calma 9 Nordeste 0 -- -- 76
2019-11-17 01:00:00 1.7 2 Nordeste 6 Nordeste 0 -- -- 79
2019-11-17 00:00:00 2.9 2 Nordeste 7 Este 0 -- -- 73
2019-11-16 23:00:00 3.4 0 Calma 6 Este 0 -- -- 73
2019-11-16 22:00:00 3.9 0 Calma 14 Sudeste 0 -- -- 75
2019-11-16 21:00:00 7.6 7 Sudeste 24 Sudoeste 0 -- -- 56
2019-11-16 20:00:00 6.5 3 Norte 17 Oeste 0 -- -- 56
2019-11-16 19:00:00 9.6 9 Sudoeste 27 Oeste 0 -- -- 42
2019-11-16 18:00:00 11.4 18 Oeste 27 Oeste 0 -- -- 41
2019-11-16 17:00:00 14.2 5 Oeste 15 Sudoeste 0 -- -- 45
2019-11-16 16:00:00 14.3 8 Sudoeste 24 Sudoeste 0 -- -- 44
2019-11-16 15:00:00 13.4 14 Sudoeste 26 Sudoeste 0 -- -- 46
2019-11-16 14:00:00 12.3 14 Sudoeste 24 Oeste 0 -- -- 50
2019-11-16 13:00:00 11.1 9 Sudoeste 19 Oeste 0 -- -- 53
2019-11-16 12:00:00 9.9 5 Sudoeste 10 Sudoeste 0 -- -- 56
2019-11-16 11:00:00 8.6 3 Sur 7 Sur 0 -- -- 61
2019-11-16 10:00:00 6.4 3 Este 7 Oeste 0 -- -- 72
2019-11-16 09:00:00 2.7 2 Nordeste 8 Oeste 0 -- -- 88
2019-11-16 08:00:00 0.4 0 Calma 12 Este 0 -- -- 90
2019-11-16 07:00:00 0.5 3 Noroeste 10 Nordeste 0 -- -- 88
2019-11-16 06:00:00 0.3 5 Este 14 Este 0 -- -- 86
2019-11-16 05:00:00 1.6 5 Este 9 Este 0 -- -- 84
2019-11-16 04:00:00 1.9 3 Nordeste 13 Nordeste 0 -- -- 82
2019-11-16 03:00:00 2.6 4 Sudoeste 10 Noroeste 0 -- -- 79
2019-11-16 02:00:00 3.5 5 Nordeste 12 Este 0 -- -- 76
2019-11-16 01:00:00 3.8 5 Este 14 Este 0 -- -- 72
2019-11-16 00:00:00 5.1 3 Noroeste 15 Sudeste 0 -- -- 65
2019-11-15 23:00:00 5.9 4 Nordeste 30 Sudoeste 0 -- -- 61
2019-11-15 22:00:00 7.8 8 Norte 41 Noroeste 0 -- -- 53
2019-11-15 21:00:00 8.8 15 Noroeste 31 Oeste 0 -- -- 50
2019-11-15 20:00:00 7.7 8 Noroeste 21 Oeste 0 -- -- 52
2019-11-15 19:00:00 9.2 9 Noroeste 22 Noroeste 0 -- -- 49
2019-11-15 18:00:00 10.7 6 Noroeste 18 Oeste 0 -- -- 42
2019-11-15 17:00:00 12.8 7 Nordeste 32 Oeste 0 -- -- 38
2019-11-15 16:00:00 12.6 19 Oeste 39 Noroeste 0 -- -- 39
2019-11-15 15:00:00 12.7 26 Oeste 37 Oeste 0 -- -- 37
2019-11-15 14:00:00 11.4 15 Oeste 27 Noroeste 0 -- -- 45
2019-11-15 13:00:00 12.2 4 Oeste 12 Oeste 0 -- -- 49
2019-11-15 12:00:00 8.6 0 Calma 9 Este 0 -- -- 64
2019-11-15 11:00:00 6.9 3 Este 10 Este 0 -- -- 68
2019-11-15 10:00:00 6.7 7 Nordeste 13 Este 0 -- -- 67
2019-11-15 09:00:00 5.2 7 Este 14 Nordeste 0 -- -- 73
2019-11-15 08:00:00 4.7 6 Este 12 Este 0 -- -- 73
2019-11-15 07:00:00 5.8 4 Nordeste 18 Este 0 -- -- 66
2019-11-15 06:00:00 6.5 9 Nordeste 37 Oeste 0 -- -- 63
2019-11-15 05:00:00 7.9 11 Noroeste 47 Oeste 0 -- -- 54
2019-11-15 04:00:00 8.2 25 Oeste 45 Oeste 0 -- -- 53
2019-11-15 03:00:00 8.6 22 Oeste 40 Noroeste 0 -- -- 53
2019-11-15 02:00:00 9.2 21 Noroeste 52 Oeste 0 -- -- 51
2019-11-15 01:00:00 9.7 17 Sudoeste 43 Sudoeste 0 -- -- 50
2019-11-15 00:00:00 9.7 20 Oeste 49 Oeste 0 -- -- 52
2019-11-14 23:00:00 9.7 26 Sudoeste 48 Sudoeste 0 -- -- 54
2019-11-14 22:00:00 10.1 25 Oeste 47 Oeste 0 -- -- 54
2019-11-14 21:00:00 10.2 30 Sudoeste 55 Sudoeste 0 -- -- 57
2019-11-14 20:00:00 10.2 23 Sudoeste 55 Sudoeste 0 -- -- 57
2019-11-14 19:00:00 10.3 18 Oeste 50 Oeste 0 -- -- 56
2019-11-14 18:00:00 8.7 12 Sudoeste 32 Sudoeste 0 -- -- 72
2019-11-14 17:00:00 8.9 12 Sudoeste 23 Sur 0 -- -- 75
2019-11-14 16:00:00 8.1 18 Sudoeste 59 Sudoeste 0.6 -- -- 81
2019-11-14 15:00:00 12.6 30 Sudoeste 46 Sudoeste 0 -- -- 46
2019-11-14 14:00:00 12.6 22 Sudoeste 51 Sudoeste 0 -- -- 48
2019-11-14 13:00:00 13.1 20 Oeste 42 Sur 0 -- -- 41
2019-11-14 12:00:00 12.2 12 Sur 38 Oeste 0 -- -- 49
2019-11-14 11:00:00 11.7 21 Oeste 46 Oeste 0 -- -- 48
2019-11-14 10:00:00 10.3 28 Oeste 43 Oeste 0 -- -- 48
2019-11-14 09:00:00 9.4 19 Oeste 43 Oeste 0 -- -- 60
2019-11-14 08:00:00 9.3 20 Oeste 41 Oeste 0.4 -- -- 92
2019-11-14 07:00:00 8.4 12 Sudoeste 26 Oeste 0 -- -- 94
2019-11-14 06:00:00 8.5 16 Sudoeste 28 Sudoeste 0 -- -- 88
2019-11-14 05:00:00 8.7 17 Sudoeste 36 Sudoeste 0 -- -- 82
2019-11-14 04:00:00 9.1 17 Sudoeste 36 Sudoeste 0 -- -- 80
2019-11-14 03:00:00 8.9 5 Sudoeste 12 Sur 0 -- -- 79
2019-11-14 02:00:00 8.4 5 Nordeste 10 Este 0 -- -- 88
2019-11-14 01:00:00 7.8 2 Nordeste 8 Sudeste 0 -- -- 91
2019-11-14 00:00:00 8.2 2 Este 5 Este 0 -- -- 88
2019-11-13 23:00:00 10 0 Calma 6 Sudeste 0 -- -- 82
2019-11-13 22:00:00 10.3 3 Este 8 Este 0 -- -- 76
2019-11-13 21:00:00 11.7 4 Noroeste 9 Norte 0 -- -- 71
2019-11-13 20:00:00 13.3 5 Noroeste 17 Sudoeste 0 -- -- 65
2019-11-13 19:00:00 14.6 11 Oeste 19 Sudoeste 0 -- -- 61
2019-11-13 18:00:00 17 8 Oeste 20 Sudoeste 0 -- -- 50
2019-11-13 17:00:00 20.4 13 Sudoeste 23 Sudoeste 0 -- -- 46
2019-11-13 16:00:00 21.9 11 Sudoeste 22 Sur 0 -- -- 44
2019-11-13 15:00:00 22.2 11 Sur 25 Sudeste 0 -- -- 45
2019-11-13 14:00:00 21.3 13 Sur 25 Sudoeste 0 -- -- 46
2019-11-13 13:00:00 20.8 17 Oeste 41 Oeste 0 -- -- 45
2019-11-13 12:00:00 20.1 31 Oeste 47 Oeste 0 -- -- 44
2019-11-13 11:00:00 18 24 Sudoeste 42 Sudoeste 0 -- -- 67
2019-11-13 10:00:00 14.8 27 Sudoeste 51 Sudoeste 0 -- -- 87
2019-11-13 09:00:00 14 28 Sudoeste 52 Sudoeste 0 -- -- 90
2019-11-13 08:00:00 13 19 Sudoeste 36 Oeste 0 -- -- 95
2019-11-13 07:00:00 12.7 20 Sudoeste 37 Sudoeste 0 -- -- 96
2019-11-13 06:00:00 12.4 22 Sudoeste 41 Sudoeste 0 -- -- 96
2019-11-13 05:00:00 12 16 Oeste 37 Sudoeste 0 -- -- 96
2019-11-13 04:00:00 11.8 22 Sudoeste 47 Sudoeste 0 -- -- 94
2019-11-13 03:00:00 11.9 23 Sudoeste 39 Oeste 0 -- -- 94
2019-11-13 02:00:00 11.9 19 Sudoeste 30 Sudoeste 0 -- -- 91
2019-11-13 01:00:00 12.1 16 Sudoeste 36 Sudoeste 0 -- -- 88
2019-11-13 00:00:00 12.1 16 Sudoeste 35 Sudoeste 0 -- -- 86
2019-11-12 23:00:00 12.7 17 Sudoeste 31 Sudoeste 0 -- -- 79
2019-11-12 22:00:00 13.1 12 Sudoeste 22 Sudoeste 0 -- -- 72
2019-11-12 21:00:00 11.9 4 Este 9 Noroeste 0 -- -- 76
2019-11-12 20:00:00 11.7 0 Calma 5 Sudoeste 0 -- -- 78
2019-11-12 19:00:00 12 3 Norte 5 Norte 0 -- -- 74
2019-11-12 18:00:00 12.8 0 Calma 6 Oeste 0 -- -- 67
2019-11-12 17:00:00 14.6 5 Sudoeste 14 Sudoeste 0 -- -- 59
2019-11-12 16:00:00 16.3 7 Sudoeste 16 Oeste 0 -- -- 52
2019-11-12 15:00:00 16.1 5 Sudoeste 15 Sudoeste 0 -- -- 54
2019-11-12 14:00:00 15.2 7 Sudeste 12 Este 0 -- -- 51
2019-11-12 13:00:00 14.2 5 Sur 12 Sur 0 -- -- 51
2019-11-12 12:00:00 13.3 4 Sudeste 12 Sudeste 0 -- -- 60
2019-11-12 11:00:00 12.7 3 Sur 7 Sur 0 -- -- 67
2019-11-12 10:00:00 10.9 0 Calma 4 Sudoeste 0 -- -- 76
2019-11-12 09:00:00 7.1 3 Sudeste 7 Sudeste 0 -- -- 91
2019-11-12 08:00:00 7 0 Calma 8 Norte 0 -- -- 88
2019-11-12 07:00:00 7.5 6 Norte 9 Norte 0 -- -- 84
2019-11-12 06:00:00 7.6 5 Norte 7 Norte 0 -- -- 87
2019-11-12 05:00:00 7.7 0 Calma 4 Nordeste 0 -- -- 92
2019-11-12 04:00:00 6.7 3 Nordeste 8 Noroeste 0 -- -- 92
2019-11-12 03:00:00 7.4 3 Noroeste 8 Noroeste 0 -- -- 90
2019-11-12 02:00:00 6 4 Este 8 Oeste 0 -- -- 92
2019-11-12 01:00:00 5.7 3 Noroeste 9 Sudoeste 0 -- -- 93
2019-11-12 00:00:00 7 3 Nordeste 9 Este 0 -- -- 89
2019-11-11 23:00:00 7.8 0 Calma 10 Noroeste 0 -- -- 88
2019-11-11 22:00:00 8.9 5 Norte 9 Norte 0 -- -- 85
2019-11-11 21:00:00 9.1 3 Nordeste 9 Oeste 0 -- -- 87
2019-11-11 20:00:00 9.8 4 Norte 10 Nordeste 0 -- -- 88
2019-11-11 19:00:00 10 3 Noroeste 14 Este 0 -- -- 90
2019-11-11 18:00:00 11.9 7 Este 12 Este 0 -- -- 82
2019-11-11 17:00:00 14 6 Este 15 Este 0 -- -- 74
2019-11-11 16:00:00 13.9 4 Sudeste 11 Este 0 -- -- 72
2019-11-11 15:00:00 13.9 3 Este 11 Este 0 -- -- 71
2019-11-11 14:00:00 12.5 2 Norte 12 Oeste 0 -- -- 71
2019-11-11 13:00:00 11.8 3 Oeste 8 Oeste 0 -- -- 72
2019-11-11 12:00:00 11.3 6 Sudoeste 11 Oeste 0 -- -- 79
2019-11-11 11:00:00 9.8 2 Este 5 Sur 0 -- -- 83
2019-11-11 10:00:00 9.1 0 Calma 5 Este 0 -- -- 91
2019-11-11 09:00:00 8.1 0 Calma 5 Nordeste 0 -- -- 94
2019-11-11 08:00:00 7.7 0 Calma 4 Nordeste 0 -- -- 93
2019-11-11 07:00:00 7.8 0 Calma 6 Norte 0 -- -- 90
2019-11-11 06:00:00 7.9 0 Calma 4 Nordeste 0 -- -- 88
2019-11-11 05:00:00 7.9 0 Calma 4 Este 0 -- -- 86
2019-11-11 04:00:00 8.3 3 Nordeste 7 Nordeste 0 -- -- 81
2019-11-11 03:00:00 8.1 3 Norte 9 Nordeste 0 -- -- 83
2019-11-11 02:00:00 8.2 5 Nordeste 10 Este 0 -- -- 81
2019-11-11 01:00:00 8.3 3 Este 7 Nordeste 0 -- -- 79
2019-11-11 00:00:00 8.4 3 Nordeste 9 Oeste 0 -- -- 78
2019-11-10 23:00:00 8.5 3 Nordeste 11 Este 0 -- -- 76
2019-11-10 22:00:00 8.5 6 Este 10 Este 0 -- -- 76
2019-11-10 21:00:00 8.6 5 Noroeste 12 Norte 0 -- -- 74
2019-11-10 20:00:00 9.4 4 Este 28 Noroeste 0 -- -- 69
2019-11-10 19:00:00 10.4 10 Sudoeste 39 Oeste 0 -- -- 63
2019-11-10 18:00:00 10.7 12 Oeste 33 Sudoeste 0 -- -- 59
2019-11-10 17:00:00 11.5 14 Sudoeste 30 Sudoeste 0 -- -- 60
2019-11-10 16:00:00 11.4 14 Sudoeste 32 Sudoeste 0 -- -- 61
2019-11-10 15:00:00 12.1 20 Oeste 36 Oeste 0 -- -- 55
2019-11-10 14:00:00 12 5 Sudoeste 30 Oeste 0 -- -- 54
2019-11-10 13:00:00 11.6 17 Noroeste 32 Noroeste 0 -- -- 53
2019-11-10 12:00:00 12.4 18 Noroeste 37 Noroeste 0 -- -- 49
2019-11-10 11:00:00 11.6 8 Oeste 29 Noroeste 0 -- -- 53
2019-11-10 10:00:00 10.9 13 Oeste 33 Oeste 0 -- -- 55
2019-11-10 09:00:00 10.2 16 Oeste 44 Noroeste 0 -- -- 51
2019-11-10 08:00:00 7.3 4 Noroeste 34 Oeste 0 -- -- 62
2019-11-10 07:00:00 7.6 5 Oeste 31 Sudoeste 0 -- -- 60
2019-11-10 06:00:00 10.4 18 Sudoeste 33 Oeste 0 -- -- 49
2019-11-10 05:00:00 10.3 9 Sudeste 44 Norte 0 -- -- 48
2019-11-10 04:00:00 12.4 7 Sudoeste 43 Noroeste 0 -- -- 42
2019-11-10 03:00:00 13 17 Noroeste 56 Noroeste 0 -- -- 43
2019-11-10 02:00:00 13.3 24 Noroeste 61 Oeste 0 -- -- 45
2019-11-10 01:00:00 12.7 24 Noroeste 66 Noroeste 0 -- -- 56
2019-11-10 00:00:00 9.5 6 Nordeste 35 Sudoeste 0 -- -- 89
2019-11-09 23:00:00 11 19 Oeste 56 Oeste 0 -- -- 89
2019-11-09 22:00:00 9.1 6 Oeste 13 Oeste 0 -- -- 97
2019-11-09 21:00:00 9.3 6 Nordeste 13 Este 0.2 -- -- 97
2019-11-09 20:00:00 8.8 3 Nordeste 10 Nordeste 0 -- -- 95
2019-11-09 19:00:00 8.5 3 Nordeste 17 Este 0 -- -- 95
2019-11-09 18:00:00 9 3 Nordeste 5 Este 0 -- -- 93
2019-11-09 17:00:00 9.4 3 Sur 5 Sudoeste 0.4 -- -- 93
2019-11-09 16:00:00 9 0 Calma 6 Norte 1.8 -- -- 90
2019-11-09 15:00:00 9.2 2 Norte 6 Sudoeste 0.8 -- -- 82
2019-11-09 14:00:00 10.1 6 Sudoeste 11 Sudoeste 0 -- -- 70
2019-11-09 13:00:00 11.9 3 Sur 8 Nordeste 0 -- -- 60
2019-11-09 12:00:00 10.8 3 Nordeste 12 Sudeste 0 -- -- 62
2019-11-09 11:00:00 9.2 5 Sudeste 12 Este 0 -- -- 70
2019-11-09 10:00:00 7.2 6 Este 10 Este 0 -- -- 80
2019-11-09 09:00:00 6.1 4 Nordeste 7 Este 0 -- -- 82
2019-11-09 08:00:00 2.4 2 Nordeste 7 Nordeste 0 -- -- 91
2019-11-09 07:00:00 1.7 2 Nordeste 9 Este 0 -- -- 92
2019-11-09 06:00:00 2.8 0 Calma 8 Norte 0 -- -- 89
2019-11-09 05:00:00 2.5 3 Noroeste 9 Norte 0 -- -- 87
2019-11-09 04:00:00 2.8 5 Este 10 Sudeste 0 -- -- 84
2019-11-09 03:00:00 3.6 3 Norte 13 Este 0 -- -- 79
2019-11-09 02:00:00 5.1 7 Nordeste 12 Nordeste 0 -- -- 74
2019-11-09 01:00:00 4.2 3 Este 10 Noroeste 0 -- -- 74
2019-11-09 00:00:00 6.4 2 Sur 14 Este 0 -- -- 63
2019-11-08 23:00:00 8.4 4 Norte 13 Norte 0 -- -- 55
2019-11-08 22:00:00 9.9 9 Norte 48 Noroeste 0 -- -- 50
2019-11-08 21:00:00 12.4 26 Noroeste 55 Noroeste 0 -- -- 41
2019-11-08 20:00:00 12.4 24 Noroeste 57 Noroeste 0 -- -- 44
2019-11-08 19:00:00 12.3 24 Noroeste 50 Oeste 0 -- -- 45
2019-11-08 18:00:00 12.9 33 Oeste 56 Noroeste 0 -- -- 43
2019-11-08 17:00:00 14.3 39 Oeste 53 Oeste 0 -- -- 40
2019-11-08 16:00:00 15.4 33 Oeste 48 Oeste 0 -- -- 38
2019-11-08 15:00:00 16.3 22 Oeste 33 Oeste 0 -- -- 34
2019-11-08 14:00:00 14.9 15 Sudoeste 25 Sudoeste 0 -- -- 42
2019-11-08 13:00:00 13.9 11 Sur 25 Sudoeste 0 -- -- 44
2019-11-08 12:00:00 13.5 9 Sudeste 25 Sudeste 0 -- -- 48
2019-11-08 11:00:00 11.7 13 Noroeste 38 Oeste 0 -- -- 53
2019-11-08 10:00:00 9.9 3 Este 12 Este 0 -- -- 63
2019-11-08 09:00:00 7.5 4 Nordeste 19 Este 0 -- -- 70
2019-11-08 08:00:00 4.4 4 Nordeste 10 Nordeste 0 -- -- 79
2019-11-08 07:00:00 4.9 5 Nordeste 13 Norte 0 -- -- 78
2019-11-08 06:00:00 5.7 6 Este 12 Oeste 0 -- -- 73
2019-11-08 05:00:00 7 6 Sudoeste 31 Sudoeste 0 -- -- 65
2019-11-08 04:00:00 8.6 17 Sudoeste 33 Sudoeste 0 -- -- 57
2019-11-08 03:00:00 7.4 16 Sur 30 Sur 0 -- -- 70
2019-11-08 02:00:00 7.2 7 Oeste 22 Sudoeste 0 -- -- 69
2019-11-08 01:00:00 8 8 Sudoeste 24 Sur 0 -- -- 64
2019-11-08 00:00:00 8 9 Sudoeste 23 Sur 0 -- -- 69
2019-11-07 23:00:00 9.7 18 Sudoeste 29 Sudoeste 0 -- -- 53
2019-11-07 22:00:00 10 18 Sudoeste 34 Oeste 0 -- -- 55
2019-11-07 21:00:00 10.6 17 Oeste 26 Sudoeste 0 -- -- 57
2019-11-07 20:00:00 10.2 11 Sur 23 Noroeste 0 -- -- 62
2019-11-07 19:00:00 11.8 17 Noroeste 35 Noroeste 0 -- -- 53
2019-11-07 18:00:00 13.1 16 Noroeste 37 Noroeste 0 -- -- 46
2019-11-07 17:00:00 14.2 24 Noroeste 44 Noroeste 0 -- -- 46
2019-11-07 16:00:00 16.1 12 Noroeste 47 Noroeste 0 -- -- 38
2019-11-07 15:00:00 15.4 20 Noroeste 38 Noroeste 0 -- -- 36
2019-11-07 14:00:00 16.6 13 Noroeste 50 Oeste 0 -- -- 34
2019-11-07 13:00:00 15.1 40 Oeste 69 Oeste 0 -- -- 38
2019-11-07 12:00:00 14.2 31 Noroeste 50 Oeste 0 -- -- 42
2019-11-07 11:00:00 15.3 5 Este 21 Norte 0 -- -- 67
2019-11-07 10:00:00 14.7 7 Norte 20 Noroeste 0 -- -- 85
2019-11-07 09:00:00 12.6 6 Este 11 Este 0 -- -- 92
2019-11-07 08:00:00 11.9 3 Sudoeste 9 Oeste 0 -- -- 95
2019-11-07 07:00:00 12.2 2 Noroeste 14 Sudoeste 0 -- -- 97
2019-11-07 06:00:00 12.2 10 Oeste 16 Oeste 0 -- -- 96
2019-11-07 05:00:00 11.8 8 Oeste 13 Oeste 0 -- -- 97
2019-11-07 04:00:00 11.4 2 Sur 8 Oeste 0 -- -- 96
2019-11-07 03:00:00 11.5 3 Nordeste 6 Este 0 -- -- 95
2019-11-07 02:00:00 11.6 3 Sudeste 4 Sudeste 0 -- -- 92
2019-11-07 01:00:00 11.5 3 Este 8 Oeste 0.2 -- -- 90
2019-11-07 00:00:00 11.3 0 Calma 6 Oeste 0 -- -- 89
2019-11-06 23:00:00 11 0 Calma 5 Norte 0 -- -- 85
2019-11-06 22:00:00 11.2 2 Este 4 Este 0 -- -- 83
2019-11-06 21:00:00 12.1 0 Calma 9 Sudoeste 0 -- -- 76
2019-11-06 20:00:00 10.8 2 Nordeste 3 Sudeste 0 -- -- 81
2019-11-06 19:00:00 11.7 2 Sudeste 4 Sudeste 0 -- -- 74
2019-11-06 18:00:00 13.8 3 Noroeste 6 Sudoeste 0 -- -- 63
2019-11-06 17:00:00 15.6 3 Oeste 11 Oeste 0 -- -- 56
2019-11-06 16:00:00 17.8 6 Oeste 13 Sudoeste 0 -- -- 48
2019-11-06 15:00:00 16.8 4 Sudeste 13 Sur 0 -- -- 49
2019-11-06 14:00:00 16.2 5 Sudoeste 12 Sudoeste 0 -- -- 53
2019-11-06 13:00:00 14.9 5 Oeste 12 Oeste 0 -- -- 63
2019-11-06 12:00:00 12.2 4 Este 9 Este 0.2 -- -- 71
2019-11-06 11:00:00 10.9 3 Este 10 Este 0 -- -- 76
2019-11-06 10:00:00 8.5 5 Este 11 Este 0 -- -- 91
2019-11-06 09:00:00 7.2 3 Este 8 Noroeste 0 -- -- 93
2019-11-06 08:00:00 6.3 3 Noroeste 6 Oeste 0 -- -- 96
2019-11-06 07:00:00 5 0 Calma 9 Este 0 -- -- 95
2019-11-06 06:00:00 4.5 4 Este 8 Nordeste 0 -- -- 93
2019-11-06 05:00:00 5.6 2 Este 7 Este 0 -- -- 91
2019-11-06 04:00:00 7.2 5 Nordeste 9 Nordeste 0 -- -- 84
2019-11-06 03:00:00 7.1 5 Este 9 Nordeste 0 -- -- 80
2019-11-06 02:00:00 8.2 2 Nordeste 8 Este 0 -- -- 76
2019-11-06 01:00:00 12 4 Nordeste 13 Norte 0 -- -- 59
2019-11-06 00:00:00 13 13 Noroeste 46 Noroeste 0 -- -- 56
2019-11-05 23:00:00 14.7 27 Oeste 44 Oeste 0 -- -- 47
2019-11-05 22:00:00 14.7 15 Sudoeste 32 Oeste 0 -- -- 51
2019-11-05 21:00:00 14.9 12 Sudoeste 21 Oeste 0 -- -- 51
2019-11-05 20:00:00 14.9 12 Sudoeste 33 Oeste 0 -- -- 52
2019-11-05 19:00:00 15.4 17 Sudoeste 35 Sudoeste 0 -- -- 50
2019-11-05 18:00:00 15.1 21 Sudoeste 34 Oeste 0 -- -- 54
2019-11-05 17:00:00 16.4 22 Sudoeste 36 Sudoeste 0 -- -- 55
2019-11-05 16:00:00 17.7 23 Sudoeste 43 Sudoeste 0 -- -- 50
2019-11-05 15:00:00 19 23 Oeste 44 Oeste 0 -- -- 44
2019-11-05 14:00:00 17.6 19 Sudoeste 43 Sudoeste 0 -- -- 53
2019-11-05 13:00:00 16.4 26 Sudoeste 43 Sudoeste 0 -- -- 62
2019-11-05 12:00:00 14.6 15 Sudoeste 27 Sudoeste 0 -- -- 72
2019-11-05 11:00:00 11.3 7 Nordeste 14 Nordeste 0 -- -- 83
2019-11-05 10:00:00 10.8 6 Nordeste 11 Nordeste 0 -- -- 88
2019-11-05 09:00:00 9.2 2 Nordeste 33 Sudoeste 0 -- -- 90
2019-11-05 08:00:00 8.8 23 Sudoeste 34 Sudoeste 0 -- -- 90
2019-11-05 07:00:00 8.4 14 Oeste 28 Sudoeste 0 -- -- 91
2019-11-05 06:00:00 9.1 18 Sudoeste 31 Sudoeste 0 -- -- 88
2019-11-05 05:00:00 9.7 16 Sudoeste 28 Sudoeste 0 -- -- 88
2019-11-05 04:00:00 9.5 13 Oeste 21 Sudoeste 0 -- -- 90
2019-11-05 03:00:00 9.3 8 Sudoeste 21 Oeste 0 -- -- 89
2019-11-05 02:00:00 9.9 7 Oeste 29 Sudoeste 0 -- -- 85
2019-11-05 01:00:00 10.5 17 Sudoeste 39 Sudoeste 0 -- -- 87
2019-11-05 00:00:00 10.7 17 Sudoeste 29 Sudoeste 0 -- -- 90
2019-11-04 23:00:00 11.6 15 Oeste 33 Oeste 0 -- -- 92
2019-11-04 22:00:00 12.4 16 Oeste 31 Oeste 0 -- -- 94
2019-11-04 21:00:00 12.9 17 Sudoeste 41 Sudoeste 0 -- -- 97
2019-11-04 20:00:00 13.2 18 Sudoeste 37 Sudoeste 0 -- -- 97
2019-11-04 19:00:00 13.6 19 Sudoeste 41 Sudoeste 0 -- -- 98
2019-11-04 18:00:00 14.1 18 Sudoeste 41 Sudoeste 1.6 -- -- 98
2019-11-04 17:00:00 14.3 18 Sudoeste 35 Sudoeste 0.6 -- -- 97
2019-11-04 16:00:00 15 17 Sudoeste 35 Sudoeste 0.4 -- -- 93
2019-11-04 15:00:00 15.3 8 Oeste 22 Oeste 0.2 -- -- 91
2019-11-04 14:00:00 15 9 Sudoeste 28 Sudoeste 0.2 -- -- 88
2019-11-04 13:00:00 15 9 Sudoeste 20 Sudoeste 0 -- -- 91
2019-11-04 12:00:00 14.2 10 Sudoeste 39 Sudoeste 0.2 -- -- 91
2019-11-04 11:00:00 15 19 Sudoeste 40 Sudoeste 0 -- -- 88
2019-11-04 10:00:00 14.4 24 Sudoeste 43 Sudoeste 0 -- -- 92
2019-11-04 09:00:00 13.5 17 Sudoeste 41 Sudoeste 0 -- -- 96
2019-11-04 08:00:00 13.3 19 Oeste 33 Oeste 0 -- -- 95
2019-11-04 07:00:00 13.1 10 Oeste 35 Sudoeste 0 -- -- 95
2019-11-04 06:00:00 13.3 22 Sudoeste 36 Sudoeste 0 -- -- 96
2019-11-04 05:00:00 13.4 22 Sudoeste 40 Sudoeste 0.2 -- -- 96
2019-11-04 04:00:00 14.2 24 Sudoeste 42 Sudoeste 0 -- -- 90
2019-11-04 03:00:00 14.3 6 Noroeste 31 Sur 0 -- -- 87
2019-11-04 02:00:00 14.2 15 Oeste 30 Sudoeste 0 -- -- 86
2019-11-04 01:00:00 14.5 8 Oeste 22 Sudoeste 0 -- -- 83
2019-11-04 00:00:00 14.9 8 Oeste 29 Sudoeste 0 -- -- 79
2019-11-03 23:00:00 14.9 12 Sudoeste 28 Sudoeste 0 -- -- 76
2019-11-03 22:00:00 14.3 3 Sudoeste 17 Sudoeste 0 -- -- 76
2019-11-03 21:00:00 15.8 11 Oeste 17 Oeste 0 -- -- 67
2019-11-03 20:00:00 15 4 Nordeste 21 Oeste 0 -- -- 65
2019-11-03 19:00:00 16.5 16 Oeste 49 Oeste 0 -- -- 56
2019-11-03 18:00:00 19.3 31 Oeste 57 Oeste 0 -- -- 44
2019-11-03 17:00:00 19.7 35 Noroeste 58 Oeste 0 -- -- 40
2019-11-03 16:00:00 19.6 41 Oeste 58 Noroeste 0 -- -- 42
2019-11-03 15:00:00 19.8 33 Noroeste 62 Noroeste 0 -- -- 39
2019-11-03 14:00:00 19.8 34 Oeste 68 Oeste 0 -- -- 40
2019-11-03 13:00:00 19.4 43 Oeste 65 Oeste 0 -- -- 42
2019-11-03 12:00:00 18.8 40 Oeste 67 Oeste 0 -- -- 43
2019-11-03 11:00:00 19.3 19 Noroeste 44 Oeste 0 -- -- 53
2019-11-03 10:00:00 18.2 26 Sudoeste 39 Sudoeste 0 -- -- 73
2019-11-03 09:00:00 16.2 27 Sudoeste 47 Sudoeste 0 -- -- 87
2019-11-03 08:00:00 14.5 23 Sudoeste 44 Sudoeste 0 -- -- 92
2019-11-03 07:00:00 14.2 23 Sudoeste 45 Sudoeste 0 -- -- 91
2019-11-03 06:00:00 13.9 21 Sudoeste 39 Sur 0 -- -- 92
2019-11-03 05:00:00 13.7 23 Sudoeste 50 Sudoeste 0 -- -- 89
2019-11-03 04:00:00 14.3 23 Sudoeste 43 Sudoeste 0 -- -- 86
2019-11-03 03:00:00 14.3 24 Sudoeste 50 Sudoeste 0 -- -- 84
2019-11-03 02:00:00 15.1 32 Sudoeste 51 Sudoeste 0 -- -- 80
2019-11-03 01:00:00 14.5 36 Sudoeste 54 Sudoeste 0 -- -- 84
2019-11-03 00:00:00 14.6 21 Sudoeste 46 Sudoeste 0 -- -- 81
2019-11-02 23:00:00 15.3 28 Sudoeste 46 Sudoeste 0 -- -- 80
2019-11-02 22:00:00 15.7 26 Sudoeste 42 Sudoeste 0 -- -- 76
2019-11-02 21:00:00 16 10 Sudoeste 30 Oeste 0 -- -- 76
2019-11-02 20:00:00 16 14 Oeste 27 Sudoeste 0 -- -- 84
2019-11-02 19:00:00 16 13 Oeste 32 Sudoeste 0 -- -- 89
2019-11-02 18:00:00 16.4 19 Sudoeste 33 Oeste 0 -- -- 88
2019-11-02 17:00:00 17.2 21 Sudoeste 37 Sudoeste 0.2 -- -- 87
2019-11-02 16:00:00 18.7 8 Sudoeste 28 Sudoeste 0 -- -- 76
2019-11-02 15:00:00 19.1 17 Sudoeste 36 Sudoeste 0 -- -- 76
2019-11-02 14:00:00 20 24 Sudoeste 41 Sudoeste 0 -- -- 77
2019-11-02 13:00:00 18.3 16 Sudoeste 33 Sudoeste 0 -- -- 88
2019-11-02 12:00:00 16.9 14 Sudoeste 31 Sudoeste 0 -- -- 96
2019-11-02 11:00:00 16.1 14 Sudoeste 30 Sudoeste 0.4 -- -- 96
2019-11-02 10:00:00 16.6 16 Sudoeste 31 Sur 0 -- -- 95
2019-11-02 09:00:00 16.6 17 Sudoeste 33 Sudoeste 0.4 -- -- 95
2019-11-02 08:00:00 15.8 10 Sudoeste 26 Sudoeste 0.4 -- -- 97
2019-11-02 07:00:00 15.7 12 Sudoeste 26 Sudoeste 0 -- -- 98
2019-11-02 06:00:00 15.8 12 Sudoeste 30 Sudoeste 0.4 -- -- 98
2019-11-02 05:00:00 15.8 14 Sudoeste 28 Sudoeste 0.4 -- -- 98
2019-11-02 04:00:00 16 11 Sudoeste 32 Sudoeste 1.2 -- -- 97
2019-11-02 03:00:00 16.2 15 Sudoeste 25 Sudoeste 0.6 -- -- 95
2019-11-02 02:00:00 16.5 15 Sudoeste 28 Sudoeste 0 -- -- 93
2019-11-02 01:00:00 16.8 21 Sudoeste 37 Oeste 0 -- -- 92
2019-11-02 00:00:00 17.4 20 Oeste 38 Sudoeste 0 -- -- 91
2019-11-01 23:00:00 17.4 16 Oeste 36 Oeste 0 -- -- 92
2019-11-01 22:00:00 17.3 11 Oeste 19 Sudoeste 0.4 -- -- 93
2019-11-01 21:00:00 17.4 15 Sudoeste 34 Sudoeste 0.6 -- -- 93
2019-11-01 20:00:00 18.6 5 Noroeste 31 Sudoeste 0 -- -- 83
2019-11-01 19:00:00 19.2 19 Oeste 41 Sudoeste 0 -- -- 82
2019-11-01 18:00:00 20.3 18 Sudoeste 41 Sudoeste 0 -- -- 76
2019-11-01 17:00:00 23.3 14 Sudoeste 30 Sudoeste 0 -- -- 68
2019-11-01 16:00:00 21.9 14 Sudoeste 30 Sudoeste 0 -- -- 76
2019-11-01 15:00:00 20.5 23 Sudoeste 46 Sudoeste 0 -- -- 81
2019-11-01 14:00:00 22.7 24 Sudoeste 41 Sudoeste 0 -- -- 73
2019-11-01 13:00:00 19 6 Oeste 21 Sudoeste 0 -- -- 91
2019-11-01 12:00:00 18.7 0 Calma 4 Sudoeste 0 -- -- 86
2019-11-01 11:00:00 18.8 0 Calma 5 Este 0 -- -- 87
2019-11-01 10:00:00 17.8 0 Calma 5 Sudeste 0 -- -- 93
2019-11-01 09:00:00 16.3 0 Calma 6 Este 0 -- -- 98
2019-11-01 08:00:00 15.7 0 Calma 5 Sudeste 0 -- -- 98
2019-11-01 07:00:00 15.6 4 Sudeste 7 Sudeste 0 -- -- 98
2019-11-01 06:00:00 15.6 0 Calma 6 Oeste 0 -- -- 98
2019-11-01 05:00:00 15 4 Oeste 8 Este 0 -- -- 98
2019-11-01 04:00:00 14.8 3 Nordeste 8 Nordeste 0 -- -- 99
2019-11-01 03:00:00 14.4 3 Norte 11 Nordeste 0 -- -- 97
2019-11-01 02:00:00 14.8 3 Norte 10 Nordeste 0 -- -- 97
2019-11-01 01:00:00 14.7 6 Nordeste 10 Nordeste 0 -- -- 97
2019-11-01 00:00:00 15.1 3 Nordeste 7 Sudeste 0 -- -- 98
2019-10-31 23:00:00 15.2 4 Nordeste 10 Este 0 -- -- 97
2019-10-31 22:00:00 15.4 0 Calma 5 Noroeste 0 -- -- 94
2019-10-31 21:00:00 16.3 0 Calma 5 Norte 0 -- -- 91
2019-10-31 20:00:00 17.4 3 Este 5 Este 0 -- -- 88
2019-10-31 19:00:00 19 3 Nordeste 5 Nordeste 0 -- -- 83
2019-10-31 18:00:00 21 0 Calma 6 Norte 0 -- -- 75
2019-10-31 17:00:00 21.2 2 Noroeste 8 Sudoeste 0 -- -- 73
2019-10-31 16:00:00 20.9 4 Oeste 9 Oeste 0 -- -- 74
2019-10-31 15:00:00 20.3 5 Noroeste 10 Oeste 0 -- -- 76
2019-10-31 14:00:00 20.2 0 Calma 10 Oeste 0 -- -- 76
2019-10-31 13:00:00 19.9 4 Sudoeste 11 Sur 0 -- -- 75
2019-10-31 12:00:00 18.7 3 Sur 7 Este 0 -- -- 82
2019-10-31 11:00:00 17.8 3 Este 6 Este 0 -- -- 90
2019-10-31 10:00:00 16.6 0 Calma 7 Oeste 0 -- -- 94
2019-10-31 09:00:00 17.6 0 Calma 8 Noroeste 0 -- -- 91
2019-10-31 08:00:00 15.9 2 Noroeste 4 Noroeste 0 -- -- 97
2019-10-31 07:00:00 16.1 2 Este 8 Este 0 -- -- 96
2019-10-31 06:00:00 16.1 3 Este 4 Este 0 -- -- 95
2019-10-31 05:00:00 16.3 2 Nordeste 6 Nordeste 0 -- -- 96
2019-10-31 04:00:00 16.5 5 Nordeste 8 Este 0 -- -- 96
2019-10-31 03:00:00 16.5 3 Nordeste 7 Este 0 -- -- 96
2019-10-31 02:00:00 16.6 3 Nordeste 5 Este 0 -- -- 95
2019-10-31 01:00:00 16.9 0 Calma 4 Este 0 -- -- 93
2019-10-31 00:00:00 16.8 2 Nordeste 5 Este 0 -- -- 93
2019-10-30 23:00:00 17 0 Calma 7 Este 0 -- -- 92
2019-10-30 22:00:00 16.8 5 Este 8 Nordeste 0 -- -- 91
2019-10-30 21:00:00 16.7 0 Calma 5 Nordeste 0 -- -- 91
2019-10-30 20:00:00 16.5 0 Calma 8 Oeste 0 -- -- 91
2019-10-30 19:00:00 17.1 3 Noroeste 7 Oeste 0 -- -- 88
2019-10-30 18:00:00 17.6 2 Sudoeste 6 Sudoeste 0.4 -- -- 85
2019-10-30 17:00:00 18.8 0 Calma 13 Sudoeste 0 -- -- 76
2019-10-30 16:00:00 18.8 7 Oeste 13 Oeste 0 -- -- 77
2019-10-30 15:00:00 18.5 3 Sudoeste 6 Oeste 0 -- -- 78
2019-10-30 14:00:00 18.7 3 Sudoeste 7 Sudoeste 0 -- -- 73
2019-10-30 13:00:00 19.1 3 Sudoeste 9 Sur 0 -- -- 70
2019-10-30 12:00:00 19.6 4 Sudeste 10 Este 0 -- -- 67
2019-10-30 11:00:00 17.9 0 Calma 4 Sur 0 -- -- 75
2019-10-30 10:00:00 15.6 0 Calma 3 Nordeste 0 -- -- 84
2019-10-30 09:00:00 13.4 0 Calma 3 Este 0 -- -- 94
2019-10-30 08:00:00 11.3 0 Calma 4 Nordeste 0 -- -- 98
2019-10-30 07:00:00 10.9 2 Nordeste 4 Este 0 -- -- 97
2019-10-30 06:00:00 11.2 0 Calma 4 Nordeste 0 -- -- 96
2019-10-30 05:00:00 11.4 0 Calma 3 Noroeste 0 -- -- 95
2019-10-30 04:00:00 11.9 0 Calma 4 Oeste 0 -- -- 94
2019-10-30 03:00:00 12.9 0 Calma 8 Sudoeste 0 -- -- 93
2019-10-30 02:00:00 12.8 2 Este 8 Este 0 -- -- 91
2019-10-30 01:00:00 13.3 0 Calma 5 Nordeste 0 -- -- 89
2019-10-30 00:00:00 13.6 2 Nordeste 8 Nordeste 0 -- -- 87
2019-10-29 23:00:00 13.7 4 Nordeste 8 Nordeste 0 -- -- 86
2019-10-29 22:00:00 13.8 3 Nordeste 6 Este 0 -- -- 88
2019-10-29 21:00:00 14.7 0 Calma 4 Sudeste 0 -- -- 83
2019-10-29 20:00:00 15.3 0 Calma 8 Norte 0 -- -- 80
2019-10-29 19:00:00 17.1 3 Norte 4 Norte 0 -- -- 72
2019-10-29 18:00:00 20.3 3 Oeste 14 Sudoeste 0 -- -- 59
2019-10-29 17:00:00 23.4 7 Sudoeste 14 Oeste 0 -- -- 50
2019-10-29 16:00:00 24.1 4 Oeste 13 Sudoeste 0 -- -- 53
2019-10-29 15:00:00 22.6 4 Sudoeste 14 Sudoeste 0 -- -- 59
2019-10-29 14:00:00 21.5 6 Sur 13 Sudoeste 0 -- -- 64
2019-10-29 13:00:00 19.8 2 Sudeste 10 Nordeste 0 -- -- 71
2019-10-29 12:00:00 17.7 3 Nordeste 9 Sudeste 0 -- -- 81
2019-10-29 11:00:00 16.1 2 Norte 5 Nordeste 0 -- -- 89
2019-10-29 10:00:00 14.7 3 Este 8 Este 0 -- -- 96
2019-10-29 09:00:00 13.5 0 Calma 2 Oeste 0 -- -- 98
2019-10-29 08:00:00 11.7 0 Calma 4 Nordeste 0 -- -- 99
2019-10-29 07:00:00 11.2 0 Calma 2 Norte 0 -- -- 99
2019-10-29 06:00:00 11.4 0 Calma 6 Este 0 -- -- 98
2019-10-29 05:00:00 11.8 3 Este 5 Este 0 -- -- 98
2019-10-29 04:00:00 11.5 0 Calma 4 Este 0 -- -- 98
2019-10-29 03:00:00 11.8 0 Calma 5 Este 0 -- -- 98
2019-10-29 02:00:00 11.5 3 Nordeste 5 Este 0 -- -- 95
2019-10-29 01:00:00 12.7 2 Norte 5 Nordeste 0 -- -- 94
2019-10-29 00:00:00 12.3 2 Este 4 Norte 0 -- -- 94
2019-10-28 23:00:00 13 4 Este 5 Nordeste 0 -- -- 92
2019-10-28 22:00:00 13.4 0 Calma 5 Este 0 -- -- 90
2019-10-28 21:00:00 14 2 Sudeste 8 Norte 0 -- -- 87
2019-10-28 20:00:00 15.1 3 Norte 4 Norte 0 -- -- 83
2019-10-28 19:00:00 16.8 3 Oeste 9 Oeste 0 -- -- 75
2019-10-28 18:00:00 18.5 7 Sudoeste 19 Sudoeste 0 -- -- 70
2019-10-28 17:00:00 21.2 8 Sudoeste 18 Sudoeste 0 -- -- 62
2019-10-28 16:00:00 21.9 12 Sudoeste 21 Sudoeste 0 -- -- 60
2019-10-28 15:00:00 21.7 11 Sudoeste 22 Sudoeste 0 -- -- 59
2019-10-28 14:00:00 21.9 12 Sudoeste 25 Sudoeste 0 -- -- 59
2019-10-28 13:00:00 21.7 9 Sudoeste 20 Sudoeste 0 -- -- 61
2019-10-28 12:00:00 20.3 10 Sudoeste 18 Sur 0 -- -- 67
2019-10-28 11:00:00 19.2 5 Sudoeste 11 Sur 0 -- -- 65
2019-10-28 10:00:00 19 3 Sur 5 Sudeste 0 -- -- 65
2019-10-28 09:00:00 15.5 2 Nordeste 4 Este 0 -- -- 79
2019-10-28 08:00:00 11.9 0 Calma 3 Norte 0 -- -- 89
2019-10-28 07:00:00 12.1 2 Noroeste 4 Oeste 0 -- -- 87
2019-10-28 06:00:00 13.1 0 Calma 4 Este 0 -- -- 86
2019-10-28 05:00:00 13.6 0 Calma 4 Sudeste 0 -- -- 84
2019-10-28 04:00:00 14.5 2 Nordeste 6 Noroeste 0 -- -- 82
2019-10-28 03:00:00 14.1 0 Calma 4 Noroeste 0 -- -- 84
2019-10-28 02:00:00 14.6 0 Calma 3 Norte 0 -- -- 80
2019-10-28 01:00:00 14.8 0 Calma 3 Este 0 -- -- 79
2019-10-28 00:00:00 15.4 0 Calma 5 Este 0 -- -- 75
2019-10-27 23:00:00 16.8 4 Norte 7 Norte 0 -- -- 67
2019-10-27 22:00:00 16.3 0 Calma 5 Norte 0 -- -- 74
2019-10-27 21:00:00 16.8 2 Nordeste 4 Sur 0 -- -- 73
2019-10-27 20:00:00 17.8 3 Sur 7 Norte 0 -- -- 68
2019-10-27 19:00:00 18.6 4 Norte 8 Norte 0 -- -- 66
2019-10-27 18:00:00 21.2 0 Calma 3 Nordeste 0 -- -- 55
2019-10-27 17:00:00 25 0 Calma 3 Este 0 -- -- 44
2019-10-27 16:00:00 25 0 Calma 10 Este 0 -- -- 44
2019-10-27 15:00:00 24.3 3 Este 12 Este 0 -- -- 46
2019-10-27 14:00:00 22.7 5 Nordeste 11 Nordeste 0 -- -- 49
2019-10-27 13:00:00 20 0 Calma 5 Norte 0 -- -- 57
2019-10-27 12:00:00 18.4 2 Sudoeste 6 Oeste 0 -- -- 60
2019-10-27 11:00:00 17.3 5 Oeste 10 Oeste 0 -- -- 64
2019-10-27 10:00:00 15.8 0 Calma 3 Oeste 0 -- -- 71
2019-10-27 09:00:00 14.3 0 Calma 5 Oeste 0 -- -- 75
2019-10-27 08:00:00 10.2 2 Noroeste 5 Oeste 0 -- -- 87
2019-10-27 07:00:00 10.9 4 Nordeste 7 Este 0 -- -- 85
2019-10-27 06:00:00 10.2 3 Este 5 Este 0 -- -- 88
2019-10-27 05:00:00 9.9 2 Nordeste 3 Nordeste 0 -- -- 85
2019-10-27 04:00:00 10.2 0 Calma 3 Norte 0 -- -- 85
2019-10-27 03:00:00 11.1 0 Calma 3 Sudeste 0 -- -- 82
2019-10-27 02:00:00 11.4 2 Este 4 Este 0 -- -- 82
2019-10-27 01:00:00 12.3 0 Calma 6 Este 0 -- -- 78
2019-10-27 00:00:00 13.2 0 Calma 4 Nordeste 0 -- -- 74
2019-10-26 23:00:00 14.4 0 Calma 4 Noroeste 0 -- -- 70
2019-10-26 22:00:00 15.2 0 Calma 6 Este 0 -- -- 71
2019-10-26 21:00:00 17.4 2 Este 12 Noroeste 0 -- -- 62
2019-10-26 20:00:00 19.3 8 Norte 12 Norte 0 -- -- 57
2019-10-26 19:00:00 25.1 2 Oeste 4 Sudoeste 0 -- -- 44
2019-10-26 18:00:00 28.1 0 Calma 6 Oeste 0 -- -- 34
2019-10-26 17:00:00 27.3 3 Sudeste 9 Este 0 -- -- 35
2019-10-26 16:00:00 26.3 2 Nordeste 10 Sudeste 0 -- -- 36
2019-10-26 15:00:00 24.5 4 Este 10 Sudeste 0 -- -- 44
2019-10-26 14:00:00 22.5 4 Este 10 Nordeste 0 -- -- 50
2019-10-26 13:00:00 20.5 3 Nordeste 10 Este 0 -- -- 54
2019-10-26 12:00:00 18.4 2 Noroeste 5 Oeste 0 -- -- 61
2019-10-26 11:00:00 15.9 2 Oeste 6 Oeste 0 -- -- 70
2019-10-26 10:00:00 13.2 0 Calma 5 Este 0 -- -- 83
2019-10-26 09:00:00 8.5 0 Calma 4 Nordeste 0 -- -- 96
2019-10-26 08:00:00 8.2 2 Sur 9 Noroeste 0 -- -- 93
2019-10-26 07:00:00 9 4 Este 6 Este 0 -- -- 94
2019-10-26 06:00:00 8.6 3 Nordeste 6 Oeste 0 -- -- 94
2019-10-26 05:00:00 9.6 4 Oeste 5 Oeste 0 -- -- 90
2019-10-26 04:00:00 9.8 4 Este 7 Este 0 -- -- 91
2019-10-26 03:00:00 10.5 0 Calma 3 Este 0 -- -- 90
2019-10-26 02:00:00 10.9 3 Este 4 Sudeste 0 -- -- 87
2019-10-26 01:00:00 12.2 2 Nordeste 8 Este 0 -- -- 82
2019-10-26 00:00:00 12.5 4 Este 7 Este 0 -- -- 80
2019-10-25 23:00:00 13.9 0 Calma 4 Este 0 -- -- 74
2019-10-25 22:00:00 14.7 2 Nordeste 5 Nordeste 0 -- -- 74
2019-10-25 21:00:00 14.9 2 Nordeste 9 Norte 0 -- -- 72
2019-10-25 20:00:00 17.2 6 Norte 9 Norte 0 -- -- 65
2019-10-25 19:00:00 23.4 0 Calma 7 Este 0 -- -- 45
2019-10-25 18:00:00 25.4 0 Calma 8 Este 0 -- -- 40
2019-10-25 17:00:00 25.5 4 Sur 11 Sur 0 -- -- 37
2019-10-25 16:00:00 23.2 4 Este 15 Este 0 -- -- 45
2019-10-25 15:00:00 22.1 4 Sudeste 11 Sudeste 0 -- -- 49
2019-10-25 14:00:00 20.2 6 Este 15 Nordeste 0 -- -- 57
2019-10-25 13:00:00 18.5 8 Este 15 Este 0 -- -- 61
2019-10-25 12:00:00 17.7 2 Sudoeste 8 Este 0 -- -- 67
2019-10-25 11:00:00 16.7 0 Calma 8 Este 0 -- -- 71
2019-10-25 10:00:00 10.7 6 Este 8 Este 0 -- -- 95
2019-10-25 09:00:00 7.7 0 Calma 3 Este 0 -- -- 99
2019-10-25 08:00:00 7.4 2 Este 5 Nordeste 0 -- -- 99
2019-10-25 07:00:00 7.6 3 Este 4 Este 0 -- -- 97
2019-10-25 06:00:00 8.4 0 Calma 2 Norte 0 -- -- 97
2019-10-25 05:00:00 8.4 0 Calma 6 Este 0 -- -- 97
2019-10-25 04:00:00 9 0 Calma 4 Nordeste 0 -- -- 96
2019-10-25 03:00:00 9.2 0 Calma 3 Nordeste 0 -- -- 95
2019-10-25 02:00:00 9.9 0 Calma 5 Nordeste 0 -- -- 92
2019-10-25 01:00:00 10 4 Este 9 Este 0 -- -- 94
2019-10-25 00:00:00 10.7 2 Norte 6 Sudeste 0 -- -- 90
2019-10-24 23:00:00 11.2 4 Este 6 Norte 0 -- -- 85
2019-10-24 22:00:00 12.5 0 Calma 7 Noroeste 0 -- -- 80
2019-10-24 21:00:00 14.1 5 Norte 11 Norte 0 -- -- 74
2019-10-24 20:00:00 14.1 5 Norte 9 Norte 0 -- -- 76
2019-10-24 19:00:00 19.2 2 Oeste 11 Oeste 0 -- -- 55
2019-10-24 18:00:00 19.7 6 Sudoeste 16 Oeste 0 -- -- 52
2019-10-24 17:00:00 20.1 5 Sur 15 Sudoeste 0 -- -- 51
2019-10-24 16:00:00 19.3 6 Oeste 14 Sudoeste 0 -- -- 52
2019-10-24 15:00:00 18.6 5 Sudeste 15 Sur 0 -- -- 53
2019-10-24 14:00:00 17 4 Sudeste 12 Sudoeste 0 -- -- 60
2019-10-24 13:00:00 15.6 5 Sur 13 Este 0 -- -- 68
2019-10-24 12:00:00 13.5 6 Este 12 Este 0 -- -- 76
2019-10-24 11:00:00 11.3 5 Este 10 Este 0 -- -- 92
2019-10-24 10:00:00 10 3 Nordeste 10 Este 0 -- -- 96
2019-10-24 09:00:00 6.7 4 Este 7 Nordeste 0 -- -- 99
2019-10-24 08:00:00 7.6 2 Nordeste 6 Sudoeste 0 -- -- 99
2019-10-24 07:00:00 6.9 0 Calma 8 Oeste 0 -- -- 99
2019-10-24 06:00:00 7.3 2 Oeste 6 Oeste 0 -- -- 97
2019-10-24 05:00:00 8 0 Calma 9 Este 0 -- -- 95
2019-10-24 04:00:00 9.3 3 Oeste 9 Este 0 -- -- 96
2019-10-24 03:00:00 10 4 Nordeste 9 Este 0 -- -- 95
2019-10-24 02:00:00 10.2 2 Nordeste 9 Nordeste 0 -- -- 94
2019-10-24 01:00:00 10.3 3 Nordeste 7 Este 0 -- -- 94
2019-10-24 00:00:00 10.7 3 Nordeste 7 Este 0 -- -- 94
2019-10-23 23:00:00 10.9 4 Este 6 Nordeste 0 -- -- 92
2019-10-23 22:00:00 11.3 3 Sudeste 9 Este 0 -- -- 91
2019-10-23 21:00:00 11.8 0 Calma 8 Este 0 -- -- 89
2019-10-23 20:00:00 12.1 2 Nordeste 5 Nordeste 0 -- -- 87
2019-10-23 19:00:00 13.2 0 Calma 4 Este 0 -- -- 79
2019-10-23 18:00:00 13.7 0 Calma 7 Norte 0 -- -- 75
2019-10-23 17:00:00 13.2 2 Norte 9 Norte 0 -- -- 79
2019-10-23 16:00:00 13.3 3 Nordeste 10 Este 0 -- -- 75
2019-10-23 15:00:00 14.1 4 Sudeste 10 Este 0 -- -- 71
2019-10-23 14:00:00 12.8 6 Este 14 Este 0 -- -- 77
2019-10-23 13:00:00 12.4 6 Este 10 Este 0 -- -- 82
2019-10-23 12:00:00 10.8 6 Este 12 Este 0 -- -- 94
2019-10-23 11:00:00 10.3 4 Nordeste 8 Nordeste 0 -- -- 98
2019-10-23 10:00:00 9.4 3 Este 6 Este 0 -- -- 98
2019-10-23 09:00:00 9.2 0 Calma 2 Noroeste 0 -- -- 98
2019-10-23 08:00:00 9.1 0 Calma 4 Nordeste 0 -- -- 98
2019-10-23 07:00:00 9.2 0 Calma 8 Este 0 -- -- 97
2019-10-23 06:00:00 9.3 0 Calma 4 Oeste 0.2 -- -- 97
2019-10-23 05:00:00 9.5 0 Calma 4 Sudeste 0 -- -- 96
2019-10-23 04:00:00 9.4 0 Calma 6 Norte 0 -- -- 95
2019-10-23 03:00:00 9.6 0 Calma 3 Este 0.2 -- -- 95
2019-10-23 02:00:00 9.6 0 Calma 5 Sudoeste 0 -- -- 94
2019-10-23 01:00:00 9.3 2 Norte 6 Sudeste 0 -- -- 94
2019-10-23 00:00:00 9.2 3 Sudoeste 8 Nordeste 0 -- -- 92
2019-10-22 23:00:00 10 3 Norte 6 Noroeste 0 -- -- 87
2019-10-22 22:00:00 9.4 4 Noroeste 5 Noroeste 0 -- -- 95
2019-10-22 21:00:00 10.7 3 Noroeste 5 Norte 0 -- -- 92
2019-10-22 20:00:00 11.3 4 Noroeste 7 Sudoeste 0 -- -- 92
2019-10-22 19:00:00 12.4 0 Calma 8 Nordeste 0.2 -- -- 85
2019-10-22 18:00:00 11.8 4 Nordeste 14 Este 1 -- -- 85
2019-10-22 17:00:00 13.6 10 Este 18 Noroeste 0.4 -- -- 67
2019-10-22 16:00:00 18.3 6 Nordeste 14 Sur 0 -- -- 45
2019-10-22 15:00:00 17.6 7 Sur 15 Sudeste 0 -- -- 48
2019-10-22 14:00:00 15.9 6 Este 13 Este 0 -- -- 56
2019-10-22 13:00:00 14.6 5 Sudoeste 14 Sudoeste 0 -- -- 61
2019-10-22 12:00:00 13.4 8 Sudoeste 13 Sudoeste 0 -- -- 64
2019-10-22 11:00:00 13.7 0 Calma 5 Oeste 0 -- -- 68
2019-10-22 10:00:00 9.5 2 Noroeste 6 Noroeste 0 -- -- 86
2019-10-22 09:00:00 5.7 0 Calma 12 Noroeste 0 -- -- 89
2019-10-22 08:00:00 5.6 3 Noroeste 6 Noroeste 0 -- -- 94
2019-10-22 07:00:00 5.1 3 Sudeste 7 Sudeste 0 -- -- 93
2019-10-22 06:00:00 5.1 5 Este 8 Este 0 -- -- 90
2019-10-22 05:00:00 5.8 3 Nordeste 5 Nordeste 0 -- -- 92
2019-10-22 04:00:00 5.4 0 Calma 6 Este 0 -- -- 92
2019-10-22 03:00:00 6.4 3 Este 6 Este 0 -- -- 89
2019-10-22 02:00:00 7.2 3 Norte 5 Este 0 -- -- 85
2019-10-22 01:00:00 7.6 5 Este 6 Este 0 -- -- 88
2019-10-22 00:00:00 8.1 2 Noroeste 5 Este 0 -- -- 83